Time;durP1;ratioP1;P1;durP2;ratioP2;P2;SDS_P1;SDS_P2;PMS_P1;PMS_P2;Temp;Humidity;BMP_temperature;BMP_pressure;BME280_temperature;BME280_humidity;BME280_pressure;Samples;Min_cycle;Max_cycle;Signal;HPM_P1;HPM_P2
2021/12/17 00:04:25;;;;;;;4.55;1.73;;;5.90;99.90;;;;;;5063206;28;20044;-82
2021/12/17 00:06:51;;;;;;;2.65;1.33;;;5.90;99.90;;;;;;5060515;28;20417;-82
2021/12/17 00:09:17;;;;;;;3.28;1.83;;;5.90;99.90;;;;;;5062751;28;20041;-82
2021/12/17 00:11:42;;;;;;;4.90;1.95;;;5.90;99.90;;;;;;5051388;28;20135;-82
2021/12/17 00:14:09;;;;;;;4.22;1.70;;;5.90;99.90;;;;;;5062489;28;20616;-82
2021/12/17 00:16:40;;;;;;;3.83;2.47;;;5.90;99.90;;;;;;5061498;28;20071;-82
2021/12/17 00:48:56;;;;;;;4.47;1.77;;;5.90;99.90;;;;;;5063820;28;20044;-81
2021/12/17 00:53:56;;;;;;;3.38;1.20;;;5.90;99.90;;;;;;5064697;28;20111;-83
2021/12/17 00:56:22;;;;;;;2.25;1.23;;;5.80;99.90;;;;;;5060669;28;20039;-81
2021/12/17 00:58:48;;;;;;;3.85;1.33;;;5.90;99.90;;;;;;5057632;28;20036;-82
2021/12/17 01:01:14;;;;;;;3.00;1.45;;;5.90;99.90;;;;;;5062914;28;20035;-82
2021/12/17 01:03:40;;;;;;;2.55;1.35;;;5.90;99.90;;;;;;5075918;28;20616;-82
2021/12/17 01:06:06;;;;;;;3.92;1.13;;;5.90;99.90;;;;;;5062136;28;20031;-82
2021/12/17 01:08:31;;;;;;;2.60;1.30;;;5.90;99.90;;;;;;5063713;28;20021;-81
2021/12/17 01:10:58;;;;;;;3.80;1.35;;;5.90;99.90;;;;;;5062537;28;20048;-81
2021/12/17 01:13:25;;;;;;;4.75;1.98;;;5.90;99.90;;;;;;5065292;28;20090;-81
2021/12/17 01:15:51;;;;;;;2.43;1.13;;;5.90;99.90;;;;;;5063059;28;20442;-81
2021/12/17 01:18:20;;;;;;;4.82;1.85;;;5.90;99.90;;;;;;5063793;28;20021;-82
2021/12/17 01:36:43;;;;;;;4.30;1.33;;;5.80;99.90;;;;;;5066189;28;20162;-82
2021/12/17 01:44:22;;;;;;;7.20;2.15;;;5.80;99.90;;;;;;5066342;28;20031;-82
2021/12/17 01:46:51;;;;;;;4.40;2.30;;;5.80;99.90;;;;;;5065081;28;20020;-81
2021/12/17 01:55:40;;;;;;;9.05;2.13;;;5.80;99.90;;;;;;5064490;28;20033;-82
2021/12/17 02:00:23;;;;;;;3.22;1.40;;;5.80;99.90;;;;;;5062724;28;20585;-82
2021/12/17 02:02:56;;;;;;;5.07;1.50;;;5.80;99.90;;;;;;5057088;28;20043;-83
2021/12/17 02:05:22;;;;;;;1.95;0.88;;;5.90;99.90;;;;;;5062061;28;20033;-83
2021/12/17 02:07:51;;;;;;;4.57;2.15;;;5.80;99.90;;;;;;5060610;28;20655;-82
2021/12/17 02:29:29;;;;;;;2.50;0.98;;;5.80;99.90;;;;;;5064631;28;20133;-82
2021/12/17 02:31:55;;;;;;;4.53;1.27;;;5.80;99.90;;;;;;5063503;28;20499;-83
2021/12/17 02:36:51;;;;;;;2.42;0.98;;;5.80;99.90;;;;;;5062031;28;20061;-83
2021/12/17 02:39:55;;;;;;;2.58;0.70;;;5.80;99.90;;;;;;5068370;28;20032;-82
2021/12/17 02:47:40;;;;;;;2.95;1.42;;;5.80;99.90;;;;;;5061110;28;20121;-83
2021/12/17 02:50:09;;;;;;;3.25;1.65;;;5.70;99.90;;;;;;5061861;28;20031;-83
2021/12/17 02:52:37;;;;;;;3.47;1.30;;;5.70;99.90;;;;;;5062708;28;20620;-82
2021/12/17 02:55:05;;;;;;;2.42;0.90;;;5.70;99.90;;;;;;5061615;28;20499;-82
2021/12/17 02:57:32;;;;;;;2.30;1.10;;;5.70;99.90;;;;;;5052564;28;20703;-85
2021/12/17 02:59:59;;;;;;;2.63;1.17;;;5.80;99.90;;;;;;5060102;28;20047;-83
2021/12/17 03:02:28;;;;;;;1.58;1.10;;;5.80;99.90;;;;;;5062769;28;20086;-83
2021/12/17 03:04:54;;;;;;;1.67;0.75;;;5.80;99.90;;;;;;5061246;28;20056;-82
2021/12/17 03:07:20;;;;;;;14.23;1.67;;;5.80;99.90;;;;;;5060939;28;20029;-84
2021/12/17 03:10:02;;;;;;;2.17;1.13;;;5.80;99.90;;;;;;5074258;28;20055;-83
2021/12/17 03:23:39;;;;;;;4.68;0.95;;;5.90;99.90;;;;;;5071183;28;20124;-83
2021/12/17 03:26:15;;;;;;;2.20;0.98;;;5.80;99.90;;;;;;5048047;28;20055;-81
2021/12/17 03:28:47;;;;;;;4.07;2.15;;;5.90;99.90;;;;;;5062885;28;20973;-81
2021/12/17 03:31:15;;;;;;;3.00;1.08;;;5.90;99.90;;;;;;5074391;28;20479;-81
2021/12/17 03:33:43;;;;;;;2.33;1.08;;;5.90;99.90;;;;;;5077761;28;20050;-81
2021/12/17 03:36:14;;;;;;;2.97;1.52;;;5.90;99.90;;;;;;5063652;28;20039;-82
2021/12/17 03:38:42;;;;;;;4.78;2.20;;;5.90;99.90;;;;;;5051587;28;20028;-83
2021/12/17 03:41:17;;;;;;;1.70;0.60;;;5.90;99.90;;;;;;5059978;28;20033;-82
2021/12/17 03:43:44;;;;;;;2.00;0.95;;;6.00;99.90;;;;;;5063169;28;20040;-82
2021/12/17 03:46:09;;;;;;;2.10;1.08;;;6.00;99.90;;;;;;5060663;28;20029;-82
2021/12/17 03:48:38;;;;;;;3.50;1.52;;;6.00;99.90;;;;;;5063885;28;20024;-81
2021/12/17 03:51:05;;;;;;;3.05;1.38;;;6.00;99.90;;;;;;5062790;28;20063;-81
2021/12/17 03:53:31;;;;;;;3.58;0.88;;;6.00;99.90;;;;;;5062644;28;20047;-83
2021/12/17 03:55:57;;;;;;;3.55;1.30;;;6.00;99.90;;;;;;5061145;28;20392;-82
2021/12/17 03:58:23;;;;;;;3.63;1.98;;;6.00;99.90;;;;;;5061708;28;20029;-83
2021/12/17 04:00:49;;;;;;;3.28;1.48;;;5.90;99.90;;;;;;5059786;28;20033;-82
2021/12/17 04:03:15;;;;;;;6.55;1.58;;;6.00;99.90;;;;;;5064888;28;20032;-82
2021/12/17 04:05:41;;;;;;;6.10;1.17;;;5.90;99.90;;;;;;5063489;28;20099;-82
2021/12/17 04:08:07;;;;;;;2.33;0.90;;;5.90;99.90;;;;;;5063771;28;20020;-82
2021/12/17 04:10:41;;;;;;;2.90;1.10;;;5.90;99.90;;;;;;5061567;28;20635;-82
2021/12/17 04:13:25;;;;;;;1.38;0.77;;;5.90;99.90;;;;;;5063653;28;20033;-82
2021/12/17 04:15:56;;;;;;;3.10;1.33;;;5.90;99.90;;;;;;5061123;28;20044;-84
2021/12/17 04:18:23;;;;;;;3.78;0.93;;;5.90;99.90;;;;;;5065267;28;20036;-83
2021/12/17 04:20:48;;;;;;;1.27;0.70;;;6.00;99.90;;;;;;5061031;28;20033;-83
2021/12/17 04:23:15;;;;;;;7.28;1.65;;;5.90;99.90;;;;;;5051634;28;20048;-82
2021/12/17 04:25:41;;;;;;;3.50;1.87;;;5.90;99.90;;;;;;5061374;28;20036;-82
2021/12/17 04:28:07;;;;;;;3.55;1.52;;;5.90;99.90;;;;;;5072972;28;20266;-82
2021/12/17 04:30:32;;;;;;;5.40;2.03;;;5.90;99.90;;;;;;5060091;28;20032;-82
2021/12/17 04:32:58;;;;;;;3.63;1.40;;;5.90;99.90;;;;;;5063263;28;20048;-82
2021/12/17 04:35:24;;;;;;;8.50;1.45;;;5.90;99.90;;;;;;5066766;28;20395;-83
2021/12/17 04:37:50;;;;;;;6.38;1.98;;;6.00;99.90;;;;;;5063592;28;20059;-81
2021/12/17 04:40:18;;;;;;;1.95;1.15;;;6.00;99.90;;;;;;5060768;28;20539;-82
2021/12/17 04:45:10;;;;;;;4.80;1.58;;;5.90;99.90;;;;;;5056016;28;20178;-83
2021/12/17 04:58:32;;;;;;;2.10;0.80;;;6.10;99.90;;;;;;5070402;28;20036;-81
2021/12/17 05:01:03;;;;;;;4.60;1.35;;;6.10;99.90;;;;;;5070523;28;20028;-81
2021/12/17 05:03:29;;;;;;;1.92;1.05;;;6.00;99.90;;;;;;5070954;28;20520;-81
2021/12/17 05:05:56;;;;;;;3.25;1.13;;;6.00;99.90;;;;;;5078272;28;20029;-82
2021/12/17 05:08:24;;;;;;;4.70;0.88;;;6.00;99.90;;;;;;5063513;28;20120;-81
2021/12/17 05:19:17;;;;;;;8.75;1.58;;;6.00;99.90;;;;;;5066657;28;20118;-82
2021/12/17 05:21:34;;;;;;;3.47;1.35;;;6.00;99.90;;;;;;5064660;28;20697;-82
2021/12/17 05:24:00;;;;;;;2.97;1.33;;;6.00;99.90;;;;;;5060935;28;20032;-83
2021/12/17 05:26:25;;;;;;;4.50;1.27;;;6.00;99.90;;;;;;5049509;28;20032;-83
2021/12/17 05:28:53;;;;;;;3.20;1.40;;;6.10;99.90;;;;;;5051371;28;20039;-81
2021/12/17 05:31:21;;;;;;;3.03;1.50;;;6.10;99.90;;;;;;5073747;28;20496;-81
2021/12/17 05:33:51;;;;;;;4.55;0.95;;;5.90;99.90;;;;;;5065254;28;20029;-82
2021/12/17 05:36:16;;;;;;;3.35;1.58;;;5.90;99.90;;;;;;5065905;28;20031;-81
2021/12/17 05:38:42;;;;;;;3.53;1.25;;;5.90;99.90;;;;;;5072589;28;20479;-82
2021/12/17 05:41:08;;;;;;;2.28;1.42;;;6.00;99.90;;;;;;5065817;28;20113;-81
2021/12/17 05:43:37;;;;;;;3.15;1.40;;;5.90;99.90;;;;;;5063063;28;20025;-82
2021/12/17 05:48:32;;;;;;;2.92;0.93;;;6.10;99.90;;;;;;5070482;28;20422;-82
2021/12/17 05:51:01;;;;;;;4.93;0.90;;;6.00;99.90;;;;;;5069694;28;20083;-82
2021/12/17 05:53:28;;;;;;;1.77;0.93;;;5.90;99.90;;;;;;5041130;28;20032;-81
2021/12/17 05:55:56;;;;;;;2.97;1.75;;;5.90;99.90;;;;;;5066889;28;20438;-82
2021/12/17 05:58:22;;;;;;;3.10;1.23;;;5.80;99.90;;;;;;5068683;28;20094;-82
2021/12/17 06:00:49;;;;;;;2.38;1.10;;;5.80;99.90;;;;;;5039035;28;20035;-81
2021/12/17 06:03:17;;;;;;;2.37;1.10;;;5.80;99.90;;;;;;5026829;28;20295;-81
2021/12/17 06:05:43;;;;;;;1.52;0.85;;;5.80;99.90;;;;;;5048695;28;20032;-84
2021/12/17 06:08:09;;;;;;;2.65;1.75;;;5.70;99.90;;;;;;5067151;28;20032;-82
2021/12/17 06:10:35;;;;;;;2.17;1.33;;;5.70;99.90;;;;;;5056503;28;20036;-82
2021/12/17 06:13:02;;;;;;;2.55;0.55;;;5.60;99.90;;;;;;5070014;28;20043;-83
2021/12/17 06:15:28;;;;;;;1.97;1.10;;;5.60;99.90;;;;;;5064424;28;20032;-82
2021/12/17 06:17:55;;;;;;;3.15;1.35;;;5.60;99.90;;;;;;5047770;28;20267;-84
2021/12/17 06:20:23;;;;;;;5.43;2.50;;;6.00;99.90;;;;;;5063375;28;20195;-83
2021/12/17 06:22:52;;;;;;;4.47;1.83;;;5.90;99.90;;;;;;5064318;28;20033;-85
2021/12/17 06:25:18;;;;;;;3.38;1.15;;;5.70;99.90;;;;;;5061349;28;20114;-84
2021/12/17 06:27:44;;;;;;;1.65;0.82;;;5.70;99.90;;;;;;5062581;28;20489;-84
2021/12/17 06:30:13;;;;;;;8.48;2.47;;;5.70;99.90;;;;;;5061762;28;20036;-84
2021/12/17 06:32:39;;;;;;;2.70;1.10;;;5.80;99.90;;;;;;5064121;28;20392;-83
2021/12/17 06:35:05;;;;;;;5.00;2.45;;;5.70;99.90;;;;;;5063126;28;20040;-83
2021/12/17 06:37:33;;;;;;;2.58;1.35;;;5.70;99.90;;;;;;5064595;28;20492;-81
2021/12/17 06:40:04;;;;;;;4.30;1.27;;;5.70;99.90;;;;;;5063662;28;20063;-83
2021/12/17 06:42:30;;;;;;;3.60;1.63;;;5.60;99.90;;;;;;5064081;28;20387;-84
2021/12/17 06:45:01;;;;;;;2.05;0.93;;;5.70;99.90;;;;;;5064350;28;20032;-84
2021/12/17 06:47:33;;;;;;;5.50;1.55;;;5.70;99.90;;;;;;5063783;28;20039;-83
2021/12/17 07:22:19;;;;;;;2.80;1.08;;;5.80;99.90;;;;;;5059168;28;20056;-80
2021/12/17 07:32:51;;;;;;;0.73;0.68;;;5.80;99.90;;;;;;5059610;28;20422;-79
2021/12/17 07:40:33;;;;;;;5.22;1.92;;;5.80;99.90;;;;;;5060699;28;20620;-85
2021/12/17 07:43:03;;;;;;;2.85;1.00;;;5.80;99.90;;;;;;5059164;28;20033;-83
2021/12/17 07:45:31;;;;;;;2.97;1.50;;;5.80;99.90;;;;;;5063842;28;20080;-84
2021/12/17 07:47:57;;;;;;;4.85;0.98;;;5.80;99.90;;;;;;5075763;28;20115;-84
2021/12/17 07:50:22;;;;;;;2.22;1.00;;;5.80;99.90;;;;;;5059978;28;20152;-85
2021/12/17 07:52:48;;;;;;;3.25;1.45;;;5.80;99.90;;;;;;5061244;28;20127;-88
2021/12/17 07:55:16;;;;;;;2.97;1.02;;;5.80;99.90;;;;;;5059698;28;20040;-89
2021/12/17 07:57:41;;;;;;;;;;;5.80;99.90;;;;;;5059732;28;20041;-87
2021/12/17 08:00:07;;;;;;;1.70;0.93;;;5.80;99.90;;;;;;5058817;28;19913;-85
2021/12/17 08:02:33;;;;;;;1.95;0.82;;;5.80;99.90;;;;;;5063207;28;20024;-85
2021/12/17 08:04:58;;;;;;;4.60;1.48;;;5.80;99.90;;;;;;5063017;28;20033;-85
2021/12/17 08:07:24;;;;;;;6.43;0.95;;;5.90;99.90;;;;;;5059354;28;20086;-85
2021/12/17 08:09:49;;;;;;;1.83;1.10;;;5.80;99.90;;;;;;5061467;28;20044;-84
2021/12/17 08:12:17;;;;;;;3.35;1.40;;;5.80;99.90;;;;;;5060744;28;20098;-86
2021/12/17 08:14:42;;;;;;;3.75;1.17;;;5.80;99.90;;;;;;5061941;28;20410;-86
2021/12/17 08:24:57;;;;;;;1.60;1.08;;;5.80;99.90;;;;;;5062206;28;20044;-86
2021/12/17 08:27:28;;;;;;;3.58;0.98;;;5.90;99.90;;;;;;5062638;28;20499;-84
2021/12/17 08:32:42;;;;;;;5.85;2.90;;;5.90;99.90;;;;;;5066703;28;20070;-85
2021/12/17 08:35:09;;;;;;;5.38;1.38;;;5.90;99.90;;;;;;5081922;28;20379;-85
2021/12/17 08:37:35;;;;;;;0.93;0.60;;;5.90;99.90;;;;;;5060927;28;20033;-85
2021/12/17 08:40:01;;;;;;;3.97;1.60;;;5.90;99.90;;;;;;5068010;28;20078;-85
2021/12/17 08:42:27;;;;;;;4.13;1.40;;;6.00;99.90;;;;;;5066013;28;20502;-86
2021/12/17 08:44:53;;;;;;;2.80;1.20;;;6.00;99.90;;;;;;5065897;28;20101;-85
2021/12/17 08:47:19;;;;;;;4.03;1.73;;;6.00;99.90;;;;;;5059587;28;20025;-82
2021/12/17 08:49:45;;;;;;;5.22;0.93;;;6.00;99.90;;;;;;5067124;28;20040;-81
2021/12/17 08:52:13;;;;;;;2.53;1.05;;;6.10;99.90;;;;;;5066394;28;20048;-82
2021/12/17 08:54:39;;;;;;;2.88;1.13;;;6.10;99.90;;;;;;5066334;28;20448;-79
2021/12/17 08:57:05;;;;;;;2.83;0.60;;;6.10;99.90;;;;;;5066235;28;20062;-79
2021/12/17 08:59:30;;;;;;;3.75;1.48;;;6.00;99.90;;;;;;5082680;28;20042;-81
2021/12/17 09:01:57;;;;;;;2.72;0.95;;;6.00;99.90;;;;;;5066101;28;20029;-81
2021/12/17 09:04:23;;;;;;;3.88;1.70;;;6.00;99.90;;;;;;5065995;28;20033;-80
2021/12/17 09:06:51;;;;;;;3.75;0.82;;;6.00;99.90;;;;;;5071248;28;20109;-81
2021/12/17 09:09:20;;;;;;;5.85;1.40;;;6.10;99.90;;;;;;5066280;28;20032;-79
2021/12/17 09:11:45;;;;;;;1.73;0.73;;;6.10;99.90;;;;;;5063288;28;20406;-79
2021/12/17 09:14:12;;;;;;;1.27;0.50;;;6.10;99.90;;;;;;5065396;28;20047;-79
2021/12/17 09:16:38;;;;;;;1.85;0.45;;;6.10;99.90;;;;;;5063796;28;20502;-80
2021/12/17 09:19:05;;;;;;;1.85;0.65;;;6.10;99.90;;;;;;5067704;28;20457;-80
2021/12/17 09:21:31;;;;;;;2.13;0.60;;;6.10;99.90;;;;;;5064635;28;20480;-80
2021/12/17 09:23:57;;;;;;;1.42;0.95;;;6.10;99.90;;;;;;5065594;28;20459;-79
2021/12/17 09:26:26;;;;;;;1.80;0.82;;;6.20;99.90;;;;;;5048986;28;20507;-78
2021/12/17 09:28:52;;;;;;;1.35;0.60;;;6.10;99.90;;;;;;5062232;28;20039;-80
2021/12/17 09:31:20;;;;;;;1.60;0.77;;;6.20;99.90;;;;;;5063414;28;20410;-81
2021/12/17 09:33:49;;;;;;;4.45;1.75;;;6.20;99.90;;;;;;5064433;28;20053;-80
2021/12/17 09:36:15;;;;;;;4.93;0.93;;;6.20;99.90;;;;;;5055806;28;20052;-80
2021/12/17 09:38:41;;;;;;;1.55;0.55;;;6.20;99.90;;;;;;5065572;28;20036;-79
2021/12/17 09:41:07;;;;;;;2.65;1.02;;;6.20;99.90;;;;;;5063011;28;20028;-80
2021/12/17 09:43:35;;;;;;;3.38;1.17;;;6.20;99.90;;;;;;5057353;28;20029;-81
2021/12/17 09:46:05;;;;;;;1.77;0.93;;;6.20;99.90;;;;;;5065150;28;20519;-81
2021/12/17 09:48:32;;;;;;;1.00;0.47;;;6.20;99.90;;;;;;5065407;28;20048;-79
2021/12/17 09:50:58;;;;;;;2.00;0.85;;;6.20;99.90;;;;;;5051505;28;20461;-80
2021/12/17 09:53:24;;;;;;;2.30;0.68;;;6.30;99.90;;;;;;5045080;28;20120;-78
2021/12/17 09:55:51;;;;;;;2.92;1.20;;;6.20;99.90;;;;;;5034008;28;20025;-79
2021/12/17 09:58:20;;;;;;;1.90;0.45;;;6.30;99.90;;;;;;5030446;28;21101;-79
2021/12/17 10:00:45;;;;;;;2.58;0.52;;;6.20;99.90;;;;;;5078081;28;20040;-79
2021/12/17 10:03:11;;;;;;;1.00;0.45;;;6.20;99.90;;;;;;5068849;28;20542;-80
2021/12/17 10:05:39;;;;;;;4.43;1.50;;;6.20;99.90;;;;;;5066653;28;20074;-81
2021/12/17 10:08:10;;;;;;;2.03;0.95;;;6.30;99.90;;;;;;5062270;28;20043;-80
2021/12/17 10:10:54;;;;;;;1.67;1.05;;;6.30;99.90;;;;;;5061301;28;20518;-79
2021/12/17 10:13:25;;;;;;;1.15;0.73;;;6.30;99.90;;;;;;5064124;28;20041;-80
2021/12/17 10:15:57;;;;;;;3.13;1.35;;;6.20;99.90;;;;;;5063072;28;20041;-79
2021/12/17 10:18:34;;;;;;;4.47;0.85;;;6.30;99.90;;;;;;5064243;28;20048;-80
2021/12/17 10:21:03;;;;;;;2.45;0.82;;;6.30;99.90;;;;;;5049631;28;20078;-80
2021/12/17 10:23:30;;;;;;;11.23;1.58;;;6.30;99.90;;;;;;5055158;28;20033;-80
2021/12/17 10:25:56;;;;;;;6.00;1.23;;;6.20;99.90;;;;;;5051478;28;20119;-79
2021/12/17 10:28:22;;;;;;;0.85;0.40;;;6.20;99.90;;;;;;5065153;28;20119;-82
2021/12/17 10:30:50;;;;;;;6.63;0.85;;;6.30;99.90;;;;;;5063191;28;20120;-80
2021/12/17 10:33:19;;;;;;;1.58;0.40;;;6.30;99.90;;;;;;5064108;28;20106;-80
2021/12/17 10:35:48;;;;;;;2.00;0.45;;;6.40;99.90;;;;;;5039695;28;20071;-80
2021/12/17 10:38:17;;;;;;;4.22;0.82;;;6.40;99.90;;;;;;5039409;28;20032;-80
2021/12/17 10:41:01;;;;;;;0.98;0.47;;;6.40;99.90;;;;;;5039037;28;20402;-80
2021/12/17 10:43:39;;;;;;;2.33;0.77;;;6.40;99.90;;;;;;5028187;28;20036;-80
2021/12/17 10:46:23;;;;;;;5.18;0.98;;;6.40;99.90;;;;;;5039091;28;20028;-81
2021/12/17 10:48:56;;;;;;;1.83;0.70;;;6.40;99.90;;;;;;5044237;28;20033;-80
2021/12/17 10:51:44;;;;;;;4.00;0.70;;;6.40;99.90;;;;;;5018544;28;20521;-80
2021/12/17 10:54:15;;;;;;;2.10;0.98;;;6.50;99.90;;;;;;5033548;28;20036;-81
2021/12/17 10:56:52;;;;;;;2.00;0.85;;;6.50;99.90;;;;;;5039610;28;20029;-80
2021/12/17 10:59:20;;;;;;;3.30;0.65;;;6.50;99.90;;;;;;5060038;28;20613;-80
2021/12/17 11:02:12;;;;;;;1.90;0.93;;;6.50;99.90;;;;;;5062488;28;20036;-80
2021/12/17 11:04:44;;;;;;;3.50;1.00;;;6.50;99.90;;;;;;5055543;28;20595;-80
2021/12/17 11:07:18;;;;;;;1.52;0.38;;;6.60;99.90;;;;;;5060193;28;20036;-81
2021/12/17 11:10:01;;;;;;;0.77;0.45;;;6.50;99.90;;;;;;5061575;28;20032;-82
2021/12/17 11:12:43;;;;;;;1.10;0.65;;;6.50;99.90;;;;;;5054769;28;20437;-80
2021/12/17 11:15:24;;;;;;;1.20;0.40;;;6.50;99.90;;;;;;5061604;28;20392;-80
2021/12/17 11:17:51;;;;;;;2.50;0.50;;;6.50;99.90;;;;;;5064234;28;20082;-80
2021/12/17 11:20:18;;;;;;;4.75;0.98;;;6.60;99.90;;;;;;5068909;28;20395;-80
2021/12/17 11:22:48;;;;;;;1.80;0.75;;;6.70;99.90;;;;;;5065694;28;20446;-80
2021/12/17 11:25:14;;;;;;;1.42;0.70;;;6.60;99.90;;;;;;5056100;28;20052;-80
2021/12/17 11:27:40;;;;;;;1.42;0.60;;;6.70;99.90;;;;;;5059036;28;20117;-81
2021/12/17 11:30:12;;;;;;;0.98;0.65;;;6.70;99.90;;;;;;5063779;28;20487;-80
2021/12/17 11:32:38;;;;;;;2.88;0.88;;;6.70;99.90;;;;;;5062324;28;20500;-80
2021/12/17 11:35:04;;;;;;;1.08;0.50;;;6.60;99.90;;;;;;5068798;28;20306;-80
2021/12/17 11:37:31;;;;;;;1.10;0.50;;;6.70;99.90;;;;;;5061679;28;20547;-81
2021/12/17 11:40:05;;;;;;;2.08;0.63;;;6.70;99.90;;;;;;5078280;27;20036;-81
2021/12/17 11:42:55;;;;;;;3.88;1.40;;;6.70;99.90;;;;;;5061661;28;20111;-81
2021/12/17 11:45:25;;;;;;;1.05;0.50;;;6.70;99.90;;;;;;5062335;28;20032;-81
2021/12/17 11:47:54;;;;;;;1.38;0.65;;;6.70;99.90;;;;;;5065062;28;20040;-81
2021/12/17 11:50:20;;;;;;;0.90;0.45;;;6.60;99.90;;;;;;5049540;28;20040;-81
2021/12/17 11:52:55;;;;;;;1.15;0.40;;;6.60;99.90;;;;;;5067761;28;20400;-80
2021/12/17 11:55:21;;;;;;;3.05;0.85;;;6.60;99.90;;;;;;5062317;28;20376;-81
2021/12/17 11:57:52;;;;;;;5.97;1.33;;;6.60;99.90;;;;;;5062251;28;20086;-81
2021/12/17 12:00:26;;;;;;;3.92;1.42;;;6.60;99.90;;;;;;5061373;28;20020;-81
2021/12/17 12:02:56;;;;;;;1.40;0.47;;;6.70;99.90;;;;;;5052018;28;20100;-81
2021/12/17 12:05:44;;;;;;;4.28;0.68;;;6.70;99.90;;;;;;5038588;28;20029;-82
2021/12/17 12:08:27;;;;;;;5.30;0.63;;;6.70;99.90;;;;;;5055292;28;20135;-81
2021/12/17 12:11:09;;;;;;;3.17;0.77;;;6.70;99.90;;;;;;5050119;28;20569;-81
2021/12/17 12:13:45;;;;;;;1.60;0.32;;;6.70;99.90;;;;;;5052948;28;20056;-81
2021/12/17 12:16:16;;;;;;;1.30;0.60;;;6.70;99.90;;;;;;5062214;28;20063;-81
2021/12/17 12:18:57;;;;;;;3.63;0.82;;;6.80;99.90;;;;;;5060798;28;20047;-81
2021/12/17 12:21:31;;;;;;;1.20;0.60;;;6.80;99.90;;;;;;5051371;28;20033;-81
2021/12/17 12:24:09;;;;;;;1.92;0.60;;;6.70;99.90;;;;;;5060691;28;20059;-83
2021/12/17 12:26:45;;;;;;;1.05;0.47;;;6.70;99.90;;;;;;5034552;28;20028;-81
2021/12/17 12:29:16;;;;;;;1.33;0.65;;;6.70;99.90;;;;;;5042341;28;20036;-81
2021/12/17 12:31:49;;;;;;;1.02;0.50;;;6.70;99.90;;;;;;5073873;28;20491;-80
2021/12/17 12:34:28;;;;;;;4.43;1.05;;;6.70;99.90;;;;;;5062124;28;20032;-81
2021/12/17 12:37:17;;;;;;;1.30;0.57;;;6.70;99.90;;;;;;5050550;28;20032;-81
2021/12/17 12:39:53;;;;;;;0.80;0.60;;;6.70;99.90;;;;;;5061106;28;20402;-82
2021/12/17 12:42:25;;;;;;;3.78;0.73;;;6.80;99.90;;;;;;5062424;28;20104;-81
2021/12/17 12:44:52;;;;;;;1.20;0.52;;;6.70;99.90;;;;;;5060909;28;20526;-82
2021/12/17 12:47:20;;;;;;;1.95;0.73;;;6.70;99.90;;;;;;5060946;28;20510;-85
2021/12/17 12:50:11;;;;;;;4.05;1.27;;;6.70;99.90;;;;;;5059275;28;20446;-83
2021/12/17 12:52:46;;;;;;;1.35;0.60;;;6.70;99.90;;;;;;5063265;28;20140;-84
2021/12/17 12:55:37;;;;;;;0.82;0.40;;;6.70;99.90;;;;;;5056140;28;20125;-81
2021/12/17 12:58:09;;;;;;;2.08;0.95;;;6.70;99.90;;;;;;5063677;28;20040;-82
2021/12/17 13:00:48;;;;;;;2.25;0.90;;;6.70;99.90;;;;;;5057553;28;20514;-82
2021/12/17 13:03:28;;;;;;;1.30;0.38;;;6.70;99.90;;;;;;5056596;28;20028;-82
2021/12/17 13:05:55;;;;;;;7.28;0.75;;;6.70;99.90;;;;;;5062665;28;20036;-84
2021/12/17 13:08:23;;;;;;;1.38;0.65;;;6.80;99.90;;;;;;5063067;28;20067;-82
2021/12/17 13:10:55;;;;;;;0.98;0.40;;;6.80;99.90;;;;;;5064850;28;20041;-82
2021/12/17 13:13:36;;;;;;;2.80;0.50;;;6.80;99.90;;;;;;5055107;28;20411;-82
2021/12/17 13:16:11;;;;;;;1.98;0.30;;;6.70;99.90;;;;;;5067454;28;20033;-83
2021/12/17 13:21:42;;;;;;;7.22;1.20;;;6.80;99.90;;;;;;5066699;28;20035;-81
2021/12/17 13:24:23;;;;;;;0.82;0.40;;;6.80;99.90;;;;;;5049535;28;20486;-83
2021/12/17 13:27:00;;;;;;;0.70;0.52;;;6.90;99.90;;;;;;5060132;28;20131;-81
2021/12/17 13:29:38;;;;;;;0.82;0.35;;;6.90;99.90;;;;;;5065074;28;20032;-81
2021/12/17 13:32:09;;;;;;;1.33;0.60;;;6.80;99.90;;;;;;5052139;28;20037;-83
2021/12/17 13:34:42;;;;;;;0.93;0.68;;;6.80;99.90;;;;;;5066351;28;20470;-81
2021/12/17 13:37:15;;;;;;;1.05;0.50;;;6.80;99.90;;;;;;5046846;28;20078;-80
2021/12/17 13:39:49;;;;;;;0.90;0.57;;;6.80;99.90;;;;;;5065500;28;20169;-81
2021/12/17 13:42:20;;;;;;;2.05;0.70;;;6.80;99.90;;;;;;5053528;28;20115;-81
2021/12/17 13:44:52;;;;;;;2.78;0.70;;;6.80;99.90;;;;;;5065138;28;20025;-80
2021/12/17 13:47:21;;;;;;;0.93;0.52;;;6.70;99.90;;;;;;5054304;28;20505;-81
2021/12/17 13:50:01;;;;;;;1.60;0.70;;;6.70;99.90;;;;;;5065620;28;20028;-81
2021/12/17 13:52:30;;;;;;;2.90;0.47;;;6.70;99.90;;;;;;5062770;28;20514;-81
2021/12/17 13:55:01;;;;;;;1.35;0.47;;;6.70;99.90;;;;;;5077603;28;20589;-81
2021/12/17 13:57:29;;;;;;;0.75;0.30;;;6.80;99.90;;;;;;5055127;28;20025;-81
2021/12/17 14:00:15;;;;;;;2.42;0.77;;;6.80;99.90;;;;;;5062498;28;20032;-81
2021/12/17 14:02:43;;;;;;;1.85;0.75;;;6.70;99.90;;;;;;5047556;28;20036;-81
2021/12/17 14:05:15;;;;;;;1.10;0.65;;;6.80;99.90;;;;;;5065781;28;20278;-82
2021/12/17 14:07:47;;;;;;;0.65;0.25;;;6.80;99.90;;;;;;5064725;28;20551;-81
2021/12/17 14:10:40;;;;;;;1.75;0.43;;;6.70;99.90;;;;;;5064545;28;20502;-80
2021/12/17 14:13:18;;;;;;;0.35;0.20;;;6.80;99.90;;;;;;5064955;28;20906;-81
2021/12/17 14:15:45;;;;;;;1.77;0.85;;;6.80;99.90;;;;;;5064879;28;20029;-81
2021/12/17 14:18:14;;;;;;;2.58;0.60;;;6.70;99.90;;;;;;5058068;28;20036;-81
2021/12/17 14:20:54;;;;;;;1.40;0.40;;;6.70;99.90;;;;;;5063544;28;20109;-81
2021/12/17 14:23:23;;;;;;;2.22;0.95;;;6.70;99.90;;;;;;5064892;28;20037;-81
2021/12/17 14:25:50;;;;;;;1.00;0.60;;;6.70;99.90;;;;;;5062781;28;20415;-82
2021/12/17 14:28:20;;;;;;;1.88;0.80;;;6.70;99.90;;;;;;5064571;28;20064;-81
2021/12/17 14:30:59;;;;;;;1.13;0.55;;;6.60;99.90;;;;;;5064369;28;20024;-81
2021/12/17 14:33:33;;;;;;;1.63;1.15;;;6.70;99.90;;;;;;5065387;28;20610;-82
2021/12/17 14:36:08;;;;;;;0.95;0.40;;;6.60;99.90;;;;;;5040594;28;20372;-82
2021/12/17 14:38:47;;;;;;;1.55;0.90;;;6.70;99.90;;;;;;5063050;28;20123;-81
2021/12/17 14:41:30;;;;;;;1.08;0.30;;;6.70;99.90;;;;;;5056305;28;20059;-81
2021/12/17 14:44:02;;;;;;;1.10;0.57;;;6.60;99.90;;;;;;5060350;28;20383;-81
2021/12/17 14:47:05;;;;;;;0.73;0.40;;;6.90;99.90;;;;;;5057249;28;20039;-81
2021/12/17 15:00:29;;;;;;;2.17;0.57;;;6.70;99.90;;;;;;5063049;28;20066;-81
2021/12/17 15:05:27;;;;;;;1.55;0.55;;;6.60;99.90;;;;;;5063039;28;20063;-83
2021/12/17 15:07:57;;;;;;;4.63;0.82;;;7.10;99.90;;;;;;5027225;28;20076;-81
2021/12/17 15:10:25;;;;;;;0.95;0.47;;;6.80;99.90;;;;;;5032172;28;21015;-80
2021/12/17 15:12:59;;;;;;;0.68;0.30;;;6.70;99.90;;;;;;5015776;28;20123;-82
2021/12/17 15:15:31;;;;;;;1.05;0.45;;;6.60;99.90;;;;;;5047358;28;20428;-81
2021/12/17 15:17:58;;;;;;;1.80;0.60;;;6.60;99.90;;;;;;5063212;28;20028;-81
2021/12/17 15:20:28;;;;;;;1.30;0.60;;;6.60;99.90;;;;;;5063181;28;20036;-81
2021/12/17 15:22:56;;;;;;;1.30;0.57;;;6.60;99.90;;;;;;5056700;28;20028;-82
2021/12/17 15:25:35;;;;;;;1.30;0.75;;;6.50;99.90;;;;;;5064385;28;20035;-82
2021/12/17 15:28:00;;;;;;;2.05;1.00;;;6.60;99.90;;;;;;5060127;28;20051;-81
2021/12/17 15:30:37;;;;;;;1.65;0.40;;;6.70;99.90;;;;;;5063365;28;20032;-81
2021/12/17 15:33:04;;;;;;;1.70;0.77;;;6.70;99.90;;;;;;5079595;28;20036;-84
2021/12/17 15:35:30;;;;;;;4.07;0.65;;;6.70;99.90;;;;;;5061811;28;20032;-81
2021/12/17 15:37:58;;;;;;;0.82;0.47;;;6.70;99.90;;;;;;5074894;28;20051;-81
2021/12/17 15:40:28;;;;;;;2.90;0.80;;;6.60;99.90;;;;;;5061933;28;20047;-81
2021/12/17 15:43:02;;;;;;;0.65;0.40;;;6.60;99.90;;;;;;5065484;28;20036;-82
2021/12/17 15:45:31;;;;;;;2.10;0.50;;;6.60;99.90;;;;;;5063097;28;20040;-84
2021/12/17 15:47:57;;;;;;;1.02;0.70;;;6.60;99.90;;;;;;5062143;28;20028;-83
2021/12/17 15:50:27;;;;;;;1.50;0.73;;;6.60;99.90;;;;;;5043073;28;20118;-81
2021/12/17 15:52:54;;;;;;;0.98;0.80;;;6.60;99.90;;;;;;5049755;28;20328;-83
2021/12/17 15:55:26;;;;;;;2.53;0.43;;;6.50;99.90;;;;;;5042718;28;20041;-82
2021/12/17 15:57:54;;;;;;;0.77;0.47;;;6.60;99.90;;;;;;5063238;28;20044;-84
2021/12/17 16:00:23;;;;;;;0.77;0.50;;;6.50;99.90;;;;;;5071507;28;20029;-83
2021/12/17 16:02:49;;;;;;;1.20;0.40;;;6.50;99.90;;;;;;5065462;28;20083;-82
2021/12/17 16:05:17;;;;;;;0.73;0.40;;;6.50;99.90;;;;;;5062066;28;20036;-82
2021/12/17 16:07:44;;;;;;;0.90;0.28;;;6.50;99.90;;;;;;5080062;28;20044;-82
2021/12/17 16:18:40;;;;;;;2.17;0.47;;;6.40;99.90;;;;;;5071840;28;20035;-82
2021/12/17 16:21:03;;;;;;;4.55;0.90;;;6.50;99.90;;;;;;5043951;28;20052;-82
2021/12/17 16:23:34;;;;;;;1.55;0.82;;;6.40;99.90;;;;;;5019506;28;20487;-82
2021/12/17 16:26:10;;;;;;;0.47;0.32;;;6.40;99.90;;;;;;5063712;28;20445;-81
2021/12/17 16:28:38;;;;;;;1.20;0.90;;;6.40;99.90;;;;;;5066296;28;20044;-81
2021/12/17 16:31:08;;;;;;;;;;;6.30;99.90;;;;;;5056465;28;20081;-81
2021/12/17 16:33:36;;;;;;;1.60;0.55;;;6.40;99.90;;;;;;5068128;28;20359;-82
2021/12/17 16:36:03;;;;;;;0.93;0.68;;;6.40;99.90;;;;;;5066098;28;20028;-81
2021/12/17 16:38:30;;;;;;;2.10;0.88;;;6.40;99.90;;;;;;5038385;28;20521;-82
2021/12/17 16:40:57;;;;;;;1.42;0.70;;;6.40;99.90;;;;;;5061005;28;20101;-82